createdAt,value
2022-11-01T00:00:55.281Z,8.30
2022-11-01T00:03:42.032Z,8.30
2022-11-01T00:06:29.130Z,8.30
2022-11-01T00:09:17.566Z,8.40
2022-11-01T00:12:04.931Z,8.40
2022-11-01T00:14:51.610Z,8.40
2022-11-01T00:17:38.435Z,8.40
2022-11-01T00:20:25.452Z,8.30
2022-11-01T00:23:12.317Z,8.30
2022-11-01T00:26:03.675Z,8.30
2022-11-01T00:28:51.371Z,8.40
2022-11-01T00:31:38.313Z,8.40
2022-11-01T00:34:25.308Z,8.30
2022-11-01T00:37:13.966Z,8.40
2022-11-01T00:40:00.653Z,8.40
2022-11-01T00:42:48.817Z,8.40
2022-11-01T00:45:35.728Z,8.40
2022-11-01T00:48:22.556Z,8.40
2022-11-01T00:51:10.290Z,8.40
2022-11-01T00:53:57.026Z,8.50
2022-11-01T00:56:43.721Z,8.50
2022-11-01T00:59:32.042Z,8.50
2022-11-01T01:02:18.697Z,8.60
2022-11-01T01:05:06.384Z,8.60
2022-11-01T01:07:53.207Z,8.70
2022-11-01T01:10:40.076Z,8.70
2022-11-01T01:13:27.099Z,8.70
2022-11-01T01:16:15.389Z,8.80
2022-11-01T01:19:02.409Z,8.80
2022-11-01T01:21:49.519Z,8.90
2022-11-01T01:24:36.172Z,8.90
2022-11-01T01:27:23.404Z,8.90
2022-11-01T01:30:10.566Z,8.90
2022-11-01T01:32:58.892Z,8.90
2022-11-01T01:35:45.867Z,8.90
2022-11-01T01:38:33.039Z,8.90
2022-11-01T01:41:37.837Z,8.90
2022-11-01T01:44:57.954Z,8.90
2022-11-01T01:47:47.121Z,8.90
2022-11-01T01:50:39.695Z,8.90
2022-11-01T01:53:29.625Z,8.90
2022-11-01T01:56:25.283Z,9.00
2022-11-01T01:59:12.572Z,9.10
2022-11-01T02:02:00.276Z,9.70
2022-11-01T02:04:51.783Z,10.30
2022-11-01T02:07:40.686Z,10.60
2022-11-01T02:10:29.290Z,11.00
2022-11-01T02:13:16.485Z,11.10
2022-11-01T02:16:36.558Z,11.20
2022-11-01T02:19:52.435Z,11.40
2022-11-01T02:22:56.249Z,11.40
2022-11-01T02:26:01.430Z,12.00
2022-11-01T02:29:00.442Z,12.30
2022-11-01T02:32:10.333Z,12.50
2022-11-01T02:35:01.505Z,12.70
2022-11-01T02:37:54.762Z,12.70
2022-11-01T02:40:47.081Z,12.70
2022-11-01T02:43:39.095Z,12.70
2022-11-01T02:46:45.832Z,12.60
2022-11-01T02:49:38.240Z,12.70
2022-11-01T02:52:27.123Z,12.80
2022-11-01T02:55:29.894Z,12.70
2022-11-01T02:58:23.390Z,12.70
2022-11-01T03:01:15.591Z,12.60
2022-11-01T03:04:03.230Z,12.50
2022-11-01T03:06:56.738Z,12.50
2022-11-01T03:09:44.212Z,12.40
2022-11-01T03:12:36.833Z,12.30
2022-11-01T03:15:28.659Z,12.20
2022-11-01T03:18:20.816Z,12.10
2022-11-01T03:21:16.575Z,12.10
2022-11-01T03:24:13.841Z,12.10
2022-11-01T03:27:05.720Z,12.00
2022-11-01T03:29:59.249Z,11.90
2022-11-01T03:32:50.779Z,12.10
2022-11-01T03:35:39.918Z,12.10
2022-11-01T03:38:30.972Z,12.20
2022-11-01T03:41:21.775Z,12.10
2022-11-01T03:44:09.111Z,12.10
2022-11-01T03:46:55.895Z,12.40
2022-11-01T03:49:43.278Z,12.40
2022-11-01T03:52:30.193Z,12.40
2022-11-01T03:55:19.322Z,12.50
2022-11-01T03:58:08.769Z,12.50
2022-11-01T04:00:55.899Z,12.60
2022-11-01T04:03:43.248Z,12.80
2022-11-01T04:06:30.425Z,12.80
2022-11-01T04:09:17.052Z,12.90
2022-11-01T04:12:03.937Z,12.90
2022-11-01T04:15:08.981Z,12.90
2022-11-01T04:18:25.115Z,12.80
2022-11-01T04:21:14.593Z,12.80
2022-11-01T04:24:01.673Z,12.70
2022-11-01T04:26:49.056Z,12.60
2022-11-01T04:29:35.567Z,12.60
2022-11-01T04:32:23.715Z,12.50
2022-11-01T04:35:12.326Z,12.40
2022-11-01T04:38:01.121Z,12.30
2022-11-01T04:40:48.197Z,12.30
2022-11-01T04:43:35.262Z,12.20
2022-11-01T04:46:22.442Z,12.20
2022-11-01T04:49:11.692Z,12.10
2022-11-01T04:51:58.481Z,12.10
2022-11-01T04:54:45.632Z,12.10
2022-11-01T04:57:32.347Z,12.10
2022-11-01T05:00:19.331Z,12.00
2022-11-01T05:03:08.007Z,12.00
2022-11-01T05:05:56.324Z,12.00
2022-11-01T05:08:43.296Z,12.00
2022-11-01T05:11:30.109Z,12.00
2022-11-01T05:14:17.096Z,11.90
2022-11-01T05:17:04.081Z,11.90
2022-11-01T05:19:50.955Z,11.90
2022-11-01T05:22:39.282Z,11.80
2022-11-01T05:25:27.178Z,11.80
2022-11-01T05:28:14.605Z,11.80
2022-11-01T05:31:01.712Z,11.80
2022-11-01T05:33:48.637Z,11.80
2022-11-01T05:36:35.453Z,11.70
2022-11-01T05:39:23.827Z,11.70
2022-11-01T05:42:10.805Z,11.60
2022-11-01T05:44:57.787Z,11.60
2022-11-01T05:47:45.141Z,11.60
2022-11-01T05:50:32.238Z,11.50
2022-11-01T05:53:19.128Z,11.50
2022-11-01T05:56:07.777Z,11.40
2022-11-01T05:58:55.145Z,11.40
2022-11-01T06:01:41.893Z,11.30
2022-11-01T06:04:29.282Z,11.30
2022-11-01T06:07:16.841Z,11.30
2022-11-01T06:10:04.961Z,11.20
2022-11-01T06:12:53.204Z,11.30
2022-11-01T06:15:40.440Z,11.30
2022-11-01T06:18:27.565Z,11.20
2022-11-01T06:21:14.787Z,11.20
2022-11-01T06:24:01.680Z,11.20
2022-11-01T06:26:48.285Z,11.10
2022-11-01T06:29:36.307Z,11.20
2022-11-01T06:32:23.053Z,11.20
2022-11-01T06:35:11.889Z,11.20
2022-11-01T06:38:03.432Z,11.20
2022-11-01T06:40:50.726Z,11.20
2022-11-01T06:43:37.679Z,11.30
2022-11-01T06:46:25.860Z,11.30
2022-11-01T06:49:16.413Z,11.20
2022-11-01T06:52:06.435Z,11.20
2022-11-01T06:54:53.337Z,11.10
2022-11-01T06:57:40.273Z,11.20
2022-11-01T07:00:29.629Z,11.20
2022-11-01T07:03:18.212Z,11.30
2022-11-01T07:06:05.081Z,11.30
2022-11-01T07:08:51.924Z,11.30
2022-11-01T07:11:39.486Z,11.30
2022-11-01T07:14:26.539Z,11.20
2022-11-01T07:17:13.628Z,11.30
2022-11-01T07:20:01.775Z,11.40
2022-11-01T07:22:49.066Z,11.40
2022-11-01T07:25:36.071Z,11.40
2022-11-01T07:28:23.561Z,11.40
2022-11-01T07:31:10.527Z,11.40
2022-11-01T07:33:57.442Z,11.40
2022-11-01T07:36:45.953Z,11.50
2022-11-01T07:39:33.006Z,11.50
2022-11-01T07:42:20.023Z,11.40
2022-11-01T07:45:11.978Z,11.40
2022-11-01T07:48:02.758Z,11.50
2022-11-01T07:50:49.532Z,11.50
2022-11-01T07:53:37.468Z,11.60
2022-11-01T07:56:24.683Z,11.70
2022-11-01T07:59:12.106Z,11.70
2022-11-01T08:02:01.382Z,11.80
2022-11-01T08:04:49.650Z,11.80
2022-11-01T08:07:39.916Z,11.90
2022-11-01T08:10:28.575Z,11.90
2022-11-01T08:13:19.740Z,12.00
2022-11-01T08:16:07.663Z,12.00
2022-11-01T08:18:54.583Z,12.00
2022-11-01T08:21:41.626Z,12.10
2022-11-01T08:24:28.557Z,12.10
2022-11-01T08:27:16.880Z,12.20
2022-11-01T08:30:04.717Z,12.30
2022-11-01T08:32:51.388Z,12.40
2022-11-01T08:35:38.056Z,12.70
2022-11-01T08:38:25.287Z,12.90
2022-11-01T08:41:12.318Z,13.00
2022-11-01T08:44:00.893Z,13.20
2022-11-01T08:46:48.333Z,13.30
2022-11-01T08:49:35.177Z,13.30
2022-11-01T08:52:22.013Z,13.30
2022-11-01T08:55:10.892Z,13.40
2022-11-01T08:58:00.432Z,13.60
2022-11-01T09:00:48.955Z,13.80
2022-11-01T09:03:35.827Z,13.80
2022-11-01T09:06:22.761Z,14.00
2022-11-01T09:09:10.331Z,14.20
2022-11-01T09:11:57.106Z,14.30
2022-11-01T09:14:43.762Z,14.50
2022-11-01T09:17:32.499Z,14.70
2022-11-01T09:20:19.521Z,14.50
2022-11-01T09:23:06.650Z,14.40
2022-11-01T09:25:53.811Z,14.70
2022-11-01T09:28:40.714Z,14.90
2022-11-01T09:31:28.611Z,15.10
2022-11-01T09:34:16.832Z,15.20
2022-11-01T09:37:05.015Z,15.00
2022-11-01T09:39:52.219Z,15.10
2022-11-01T09:42:42.569Z,15.30
2022-11-01T09:45:32.426Z,15.20
2022-11-01T09:48:19.632Z,14.90
2022-11-01T09:51:14.438Z,15.00
2022-11-01T09:54:04.504Z,14.70
2022-11-01T09:57:02.194Z,14.80
2022-11-01T09:59:58.005Z,14.80
2022-11-01T10:03:20.272Z,14.60
2022-11-01T10:06:16.545Z,14.60
2022-11-01T10:09:10.610Z,14.50
2022-11-01T10:12:20.025Z,14.40
2022-11-01T10:15:20.386Z,14.30
2022-11-01T10:18:18.039Z,14.20
2022-11-01T10:21:09.668Z,14.50
2022-11-01T10:24:01.601Z,14.70
2022-11-01T10:26:52.043Z,14.70
2022-11-01T10:29:44.840Z,15.00
2022-11-01T10:32:36.283Z,14.70
2022-11-01T10:35:28.701Z,14.70
2022-11-01T10:38:37.761Z,14.90
2022-11-01T10:41:41.181Z,15.10
2022-11-01T10:44:31.297Z,15.20
2022-11-01T10:47:20.193Z,15.20
2022-11-01T10:50:17.646Z,15.10
2022-11-01T10:53:08.185Z,15.10
2022-11-01T10:56:02.326Z,15.00
2022-11-01T10:58:58.592Z,15.10
2022-11-01T11:01:47.300Z,15.40
2022-11-01T11:04:34.816Z,15.60
2022-11-01T11:07:24.248Z,16.00
2022-11-01T11:10:22.899Z,15.80
2022-11-01T11:13:12.352Z,15.70
2022-11-01T11:16:04.251Z,16.00
2022-11-01T11:19:02.439Z,16.00
2022-11-01T11:21:51.662Z,15.80
2022-11-01T11:24:40.275Z,16.00
2022-11-01T11:27:30.681Z,16.00
2022-11-01T11:30:29.576Z,17.00
2022-11-01T11:33:19.563Z,17.50
2022-11-01T11:36:07.595Z,17.40
2022-11-01T11:38:56.711Z,17.40
2022-11-01T11:41:47.175Z,16.60
2022-11-01T11:44:45.729Z,16.50
2022-11-01T11:47:37.964Z,16.30
2022-11-01T11:50:33.334Z,15.80
2022-11-01T11:53:24.369Z,15.30
2022-11-01T11:56:12.939Z,15.30
2022-11-01T11:59:08.368Z,15.30
2022-11-01T12:02:00.858Z,15.10
2022-11-01T12:04:54.189Z,15.00
2022-11-01T12:07:49.046Z,14.50
2022-11-01T12:10:39.006Z,14.20
2022-11-01T12:13:29.522Z,14.00
2022-11-01T12:16:24.487Z,14.10
2022-11-01T12:19:25.031Z,14.10
2022-11-01T12:22:13.342Z,14.00
2022-11-01T12:25:06.287Z,14.20
2022-11-01T12:27:59.520Z,14.30
2022-11-01T12:30:49.886Z,14.40
2022-11-01T12:33:42.181Z,14.60
2022-11-01T12:36:32.655Z,14.80
2022-11-01T12:39:33.646Z,14.90
2022-11-01T12:42:28.653Z,15.00
2022-11-01T12:45:24.682Z,14.90
2022-11-01T12:48:15.865Z,14.80
2022-11-01T12:51:08.431Z,14.70
2022-11-01T12:54:00.460Z,14.40
2022-11-01T12:56:47.400Z,14.10
2022-11-01T12:59:38.920Z,14.30
2022-11-01T13:02:56.468Z,14.50
2022-11-01T13:05:54.460Z,14.80
2022-11-01T13:08:50.005Z,14.70
2022-11-01T13:11:44.678Z,15.10
2022-11-01T13:14:44.384Z,15.10
2022-11-01T13:17:38.966Z,15.10
2022-11-01T13:20:44.049Z,15.40
2022-11-01T13:23:36.735Z,15.10
2022-11-01T13:26:27.467Z,15.10
2022-11-01T13:29:18.777Z,15.00
2022-11-01T13:32:14.370Z,15.20
2022-11-01T13:35:31.779Z,15.30
2022-11-01T13:38:29.050Z,15.30
2022-11-01T13:41:22.332Z,15.20
2022-11-01T13:44:16.823Z,15.10
2022-11-01T13:47:35.733Z,15.00
2022-11-01T13:50:59.110Z,14.90
2022-11-01T13:53:54.179Z,14.70
2022-11-01T13:56:44.095Z,14.80
2022-11-01T13:59:33.476Z,14.80
2022-11-01T14:02:57.374Z,14.60
2022-11-01T14:05:46.996Z,14.70
2022-11-01T14:08:38.104Z,14.70
2022-11-01T14:11:48.514Z,14.70
2022-11-01T14:14:51.181Z,14.70
2022-11-01T14:18:07.461Z,14.60
2022-11-01T14:20:56.858Z,14.60
2022-11-01T14:23:51.072Z,14.70
2022-11-01T14:26:51.526Z,14.60
2022-11-01T14:29:38.237Z,14.40
2022-11-01T14:32:27.931Z,14.30
2022-11-01T14:35:23.686Z,14.20
2022-11-01T14:38:18.477Z,14.10
2022-11-01T14:41:08.270Z,14.20
2022-11-01T14:46:58.122Z,13.70
2022-11-01T14:49:45.497Z,13.70
2022-11-01T14:52:40.860Z,13.70
2022-11-01T14:55:36.183Z,13.60
2022-11-01T14:58:24.287Z,13.40
2022-11-01T15:01:17.161Z,13.20
2022-11-01T15:04:04.342Z,13.20
2022-11-01T15:06:51.545Z,13.20
2022-11-01T15:09:38.690Z,13.20
2022-11-01T15:12:28.603Z,13.10
2022-11-01T15:15:17.874Z,13.00
2022-11-01T15:18:09.266Z,12.90
2022-11-01T15:21:01.497Z,12.90
2022-11-01T15:23:50.305Z,12.80
2022-11-01T15:26:37.964Z,12.90
2022-11-01T15:29:26.091Z,12.90
2022-11-01T15:32:24.445Z,12.90
2022-11-01T15:35:23.144Z,12.80
2022-11-01T15:38:20.871Z,12.80
2022-11-01T15:41:27.894Z,12.70
2022-11-01T15:44:21.536Z,12.70
2022-11-01T15:47:17.918Z,12.70
2022-11-01T15:50:07.597Z,12.60
2022-11-01T15:52:54.645Z,12.60
2022-11-01T15:55:45.986Z,12.50
2022-11-01T15:58:39.471Z,12.50
2022-11-01T16:01:26.912Z,12.40
2022-11-01T16:04:18.937Z,12.40
2022-11-01T16:07:08.036Z,12.30
2022-11-01T16:09:59.034Z,12.20
2022-11-01T16:13:01.441Z,12.20
2022-11-01T16:16:05.265Z,12.20
2022-11-01T16:18:52.155Z,12.10
2022-11-01T16:21:40.561Z,12.10
2022-11-01T16:24:28.096Z,12.00
2022-11-01T16:27:28.006Z,11.90
2022-11-01T16:30:33.671Z,11.70
2022-11-01T16:33:26.931Z,11.60
2022-11-01T16:36:36.966Z,11.50
2022-11-01T16:39:31.038Z,11.40
2022-11-01T16:42:18.565Z,11.30
2022-11-01T16:45:08.108Z,11.20
2022-11-01T16:47:58.317Z,11.10
2022-11-01T16:50:46.179Z,11.10
2022-11-01T16:53:33.125Z,11.10
2022-11-01T16:56:36.265Z,11.10
2022-11-01T16:59:28.763Z,11.00
2022-11-01T17:02:19.611Z,10.90
2022-11-01T17:05:23.593Z,10.80
2022-11-01T17:08:12.740Z,10.70
2022-11-01T17:10:59.565Z,10.60
2022-11-01T17:13:48.020Z,10.40
2022-11-01T17:16:35.535Z,10.40
2022-11-01T17:19:25.992Z,10.40
2022-11-01T17:22:19.216Z,10.30
2022-11-01T17:25:07.301Z,10.30
2022-11-01T17:27:53.991Z,10.40
2022-11-01T17:30:42.085Z,10.30
2022-11-01T17:33:29.141Z,10.30
2022-11-01T17:36:17.777Z,10.30
2022-11-01T17:39:04.976Z,10.20
2022-11-01T17:41:52.336Z,10.10
2022-11-01T17:44:38.959Z,10.00
2022-11-01T17:47:27.407Z,10.00
2022-11-01T17:50:15.698Z,10.00
2022-11-01T17:53:02.717Z,9.90
2022-11-01T17:55:57.900Z,9.80
2022-11-01T17:58:49.458Z,9.70
2022-11-01T18:01:39.624Z,9.60
2022-11-01T18:04:32.609Z,9.50
2022-11-01T18:07:22.261Z,9.30
2022-11-01T18:10:20.069Z,9.30
2022-11-01T18:13:23.166Z,9.20
2022-11-01T18:16:18.423Z,9.10
2022-11-01T18:19:36.112Z,9.20
2022-11-01T18:22:32.697Z,9.20
2022-11-01T18:25:29.533Z,9.10
2022-11-01T18:28:18.541Z,9.00
2022-11-01T18:31:13.982Z,8.90
2022-11-01T18:34:07.760Z,8.80
2022-11-01T18:37:02.527Z,8.70
2022-11-01T18:39:57.465Z,8.80
2022-11-01T18:42:47.930Z,8.80
2022-11-01T18:45:57.717Z,8.80
2022-11-01T18:48:43.877Z,9.00
2022-11-01T18:51:32.474Z,8.90
2022-11-01T18:54:26.080Z,9.10
2022-11-01T18:57:17.336Z,8.90
2022-11-01T19:00:09.628Z,8.80
2022-11-01T19:03:00.309Z,8.80
2022-11-01T19:05:46.865Z,8.60
2022-11-01T19:08:35.517Z,8.60
2022-11-01T19:11:24.384Z,8.40
2022-11-01T19:14:13.612Z,8.20
2022-11-01T19:17:00.282Z,8.00
2022-11-01T19:19:48.236Z,7.70
2022-11-01T19:22:39.661Z,7.50
2022-11-01T19:25:29.497Z,7.40
2022-11-01T19:28:26.601Z,7.30
2022-11-01T19:31:22.632Z,7.20
2022-11-01T19:34:18.791Z,7.10
2022-11-01T19:37:19.537Z,7.10
2022-11-01T19:40:20.842Z,7.10
2022-11-01T19:43:14.838Z,7.00
2022-11-01T19:46:03.087Z,6.90
2022-11-01T19:48:52.187Z,6.90
2022-11-01T19:51:39.126Z,6.90
2022-11-01T19:54:26.576Z,6.90
2022-11-01T19:57:31.107Z,6.80
2022-11-01T20:00:20.993Z,6.80
2022-11-01T20:03:21.967Z,6.70
2022-11-01T20:06:15.134Z,6.60
2022-11-01T20:09:06.697Z,6.60
2022-11-01T20:11:54.093Z,6.50
2022-11-01T20:14:41.946Z,6.70
2022-11-01T20:17:28.591Z,6.80
2022-11-01T20:20:18.342Z,6.80
2022-11-01T20:26:12.724Z,6.80
2022-11-01T20:28:59.753Z,6.90
2022-11-01T20:31:48.679Z,6.90
2022-11-01T20:34:35.429Z,7.00
2022-11-01T20:37:29.108Z,7.20
2022-11-01T20:40:17.275Z,7.30
2022-11-01T20:43:07.071Z,7.60
2022-11-01T20:45:54.477Z,7.60
2022-11-01T20:48:41.543Z,7.70
2022-11-01T20:51:29.690Z,7.60
2022-11-01T20:54:19.200Z,7.70
2022-11-01T20:57:05.994Z,7.70
2022-11-01T20:59:53.043Z,7.60
2022-11-01T21:02:40.540Z,7.80
2022-11-01T21:05:30.044Z,7.90
2022-11-01T21:08:24.635Z,7.90
2022-11-01T21:11:18.062Z,8.00
2022-11-01T21:14:13.612Z,8.20
2022-11-01T21:17:01.670Z,8.50
2022-11-01T21:19:53.873Z,8.50
2022-11-01T21:22:40.686Z,8.60
2022-11-01T21:25:27.755Z,8.60
2022-11-01T21:28:27.982Z,8.60
2022-11-01T21:31:25.786Z,8.60
2022-11-01T21:34:27.064Z,8.60
2022-11-01T21:37:14.105Z,8.50
2022-11-01T21:40:06.741Z,8.30
2022-11-01T21:42:56.400Z,8.20
2022-11-01T21:45:47.720Z,8.20
2022-11-01T21:48:34.745Z,8.10
2022-11-01T21:51:21.427Z,8.00
2022-11-01T21:54:08.720Z,8.00
2022-11-01T21:56:56.062Z,8.00
2022-11-01T21:59:43.596Z,8.30
2022-11-01T22:02:32.041Z,8.30
2022-11-01T22:05:18.844Z,8.40
2022-11-01T22:08:06.843Z,8.50
2022-11-01T22:10:53.584Z,8.50
2022-11-01T22:13:40.529Z,8.60
2022-11-01T22:16:28.234Z,8.60
2022-11-01T22:19:17.993Z,8.70
2022-11-01T22:22:04.844Z,8.70
2022-11-01T22:24:51.981Z,8.60
2022-11-01T22:27:38.822Z,8.70
2022-11-01T22:30:26.015Z,8.90
2022-11-01T22:33:13.429Z,8.90
2022-11-01T22:36:01.782Z,8.90
2022-11-01T22:38:49.115Z,8.90
2022-11-01T22:41:37.015Z,8.90
2022-11-01T22:44:27.672Z,8.80
2022-11-01T22:47:22.882Z,8.70
2022-11-01T22:50:14.481Z,8.60
2022-11-01T22:53:03.348Z,8.40
2022-11-01T22:55:53.958Z,8.40
2022-11-01T22:58:40.820Z,8.30
2022-11-01T23:01:30.614Z,8.20
2022-11-01T23:04:23.471Z,8.10
2022-11-01T23:07:24.200Z,8.20
2022-11-01T23:10:24.099Z,8.30
2022-11-01T23:13:37.508Z,8.20
2022-11-01T23:16:26.787Z,8.20
2022-11-01T23:19:15.041Z,8.20
2022-11-01T23:22:01.605Z,8.30
2022-11-01T23:24:51.119Z,8.30
2022-11-01T23:27:39.846Z,8.30
2022-11-01T23:30:26.826Z,8.40
2022-11-01T23:33:15.180Z,8.40
2022-11-01T23:36:02.608Z,8.50
2022-11-01T23:38:53.585Z,8.50
2022-11-01T23:41:42.969Z,8.70
2022-11-01T23:44:34.233Z,8.70
2022-11-01T23:47:29.138Z,8.80
2022-11-01T23:50:22.190Z,8.90
2022-11-01T23:53:14.906Z,9.20
2022-11-01T23:56:03.110Z,9.30
2022-11-01T23:58:56.113Z,9.40
